createdAt,value
2022-11-24T00:00:48.164Z,7.90
2022-11-24T00:04:56.791Z,7.90
2022-11-24T00:09:06.247Z,7.90
2022-11-24T00:13:14.843Z,7.80
2022-11-24T00:17:23.470Z,7.80
2022-11-24T00:21:33.478Z,7.80
2022-11-24T00:25:42.015Z,7.80
2022-11-24T00:29:50.593Z,7.80
2022-11-24T00:34:01.984Z,7.80
2022-11-24T00:38:10.549Z,7.80
2022-11-24T00:42:19.133Z,7.80
2022-11-24T00:46:28.422Z,7.80
2022-11-24T00:50:37.213Z,7.70
2022-11-24T00:54:45.685Z,7.70
2022-11-24T00:58:54.366Z,7.70
2022-11-24T01:03:02.955Z,7.70
2022-11-24T01:07:11.783Z,7.60
2022-11-24T01:11:29.365Z,7.60
2022-11-24T01:15:38.140Z,7.60
2022-11-24T01:19:48.365Z,7.60
2022-11-24T01:23:58.183Z,7.60
2022-11-24T01:28:06.850Z,7.60
2022-11-24T01:32:15.412Z,7.60
2022-11-24T01:36:24.302Z,7.60
2022-11-24T01:40:32.941Z,7.70
2022-11-24T01:44:53.389Z,7.70
2022-11-24T01:49:10.889Z,7.70
2022-11-24T01:53:19.373Z,7.70
2022-11-24T01:57:33.670Z,7.70
2022-11-24T02:01:43.292Z,7.80
2022-11-24T02:06:03.317Z,7.80
2022-11-24T02:10:14.404Z,7.80
2022-11-24T02:14:24.731Z,7.80
2022-11-24T02:18:33.508Z,7.80
2022-11-24T02:23:03.023Z,7.80
2022-11-24T02:27:12.573Z,7.80
2022-11-24T02:31:21.341Z,7.80
2022-11-24T02:35:30.152Z,7.80
2022-11-24T02:39:39.584Z,7.80
2022-11-24T02:43:54.061Z,7.80
2022-11-24T02:48:02.642Z,7.80
2022-11-24T02:52:11.355Z,7.80
2022-11-24T02:56:20.038Z,7.80
2022-11-24T03:00:28.876Z,7.80
2022-11-24T03:04:37.604Z,7.80
2022-11-24T03:08:46.334Z,7.80
2022-11-24T03:12:56.155Z,7.70
2022-11-24T03:17:24.073Z,7.70
2022-11-24T03:21:33.111Z,7.70
2022-11-24T03:25:41.629Z,7.70
2022-11-24T03:29:50.161Z,7.70
2022-11-24T03:33:58.722Z,7.60
2022-11-24T03:38:08.050Z,7.60
2022-11-24T03:42:16.840Z,7.60
2022-11-24T03:46:25.587Z,7.60
2022-11-24T03:50:57.581Z,7.50
2022-11-24T03:55:07.024Z,7.60
2022-11-24T03:59:15.652Z,7.60
2022-11-24T04:03:25.119Z,7.60
2022-11-24T04:07:54.670Z,7.70
2022-11-24T04:12:21.372Z,7.70
2022-11-24T04:16:29.928Z,7.80
2022-11-24T04:20:39.083Z,7.80
2022-11-24T04:24:47.627Z,7.90
2022-11-24T04:28:56.273Z,8.00
2022-11-24T04:33:04.925Z,8.10
2022-11-24T04:37:13.759Z,8.10
2022-11-24T04:41:22.491Z,8.10
2022-11-24T04:45:31.016Z,8.10
2022-11-24T04:49:39.660Z,8.10
2022-11-24T04:53:49.920Z,8.10
2022-11-24T04:57:58.542Z,8.20
2022-11-24T05:02:07.146Z,8.20
2022-11-24T05:06:16.003Z,8.20
2022-11-24T05:10:36.617Z,8.20
2022-11-24T05:14:45.447Z,8.20
2022-11-24T05:18:53.992Z,8.20
2022-11-24T05:23:04.579Z,8.20
2022-11-24T05:27:13.132Z,8.20
2022-11-24T05:31:21.858Z,8.20
2022-11-24T05:35:30.534Z,8.20
2022-11-24T05:39:39.268Z,8.20
2022-11-24T05:43:47.874Z,8.20
2022-11-24T05:47:56.525Z,8.30
2022-11-24T05:52:05.270Z,8.30
2022-11-24T05:56:13.882Z,8.30
2022-11-24T06:00:24.433Z,8.30
2022-11-24T06:04:33.447Z,8.30
2022-11-24T06:08:42.330Z,8.30
2022-11-24T06:12:51.366Z,8.40
2022-11-24T06:17:00.461Z,8.40
2022-11-24T06:21:11.189Z,8.40
2022-11-24T06:25:19.885Z,8.40
2022-11-24T06:29:28.449Z,8.40
2022-11-24T06:33:38.554Z,8.30
2022-11-24T06:37:47.104Z,8.30
2022-11-24T06:41:55.867Z,8.30
2022-11-24T06:46:04.993Z,8.30
2022-11-24T06:50:13.735Z,8.30
2022-11-24T06:54:22.311Z,8.30
2022-11-24T06:58:30.892Z,8.30
2022-11-24T07:02:45.485Z,8.30
2022-11-24T07:06:49.789Z,8.30
2022-11-24T07:10:59.950Z,8.30
2022-11-24T07:15:10.084Z,8.30
2022-11-24T07:19:24.401Z,8.30
2022-11-24T07:23:29.524Z,8.30
2022-11-24T07:27:38.469Z,8.40
2022-11-24T07:31:47.167Z,8.40
2022-11-24T07:35:57.458Z,8.40
2022-11-24T07:40:07.014Z,8.40
2022-11-24T07:44:15.841Z,8.50
2022-11-24T07:48:24.471Z,8.50
2022-11-24T07:52:33.538Z,8.50
2022-11-24T07:56:42.341Z,8.50
2022-11-24T08:00:50.969Z,8.50
2022-11-24T08:04:59.471Z,8.50
2022-11-24T08:09:08.996Z,8.50
2022-11-24T08:13:17.675Z,8.60
2022-11-24T08:17:26.407Z,8.60
2022-11-24T08:21:35.154Z,8.70
2022-11-24T08:25:43.971Z,8.70
2022-11-24T08:29:52.598Z,8.60
2022-11-24T08:34:01.686Z,8.60
2022-11-24T08:38:10.235Z,8.70
2022-11-24T08:42:19.792Z,8.70
2022-11-24T08:46:28.494Z,8.70
2022-11-24T08:50:38.506Z,8.70
2022-11-24T08:55:06.491Z,8.70
2022-11-24T08:59:15.760Z,8.70
2022-11-24T09:03:24.362Z,8.70
2022-11-24T09:07:33.047Z,8.70
2022-11-24T09:11:41.824Z,8.70
2022-11-24T09:15:50.452Z,8.70
2022-11-24T09:19:59.081Z,8.70
2022-11-24T09:24:08.490Z,8.60
2022-11-24T09:28:17.055Z,8.60
2022-11-24T09:32:25.888Z,8.60
2022-11-24T09:36:34.771Z,8.70
2022-11-24T09:40:43.323Z,8.70
2022-11-24T09:44:54.969Z,8.70
2022-11-24T09:49:06.113Z,8.80
2022-11-24T09:53:37.362Z,8.80
2022-11-24T09:57:49.115Z,8.90
2022-11-24T10:02:00.449Z,8.90
2022-11-24T10:06:27.450Z,9.00
2022-11-24T10:10:44.986Z,9.10
2022-11-24T10:15:16.450Z,9.30
2022-11-24T10:19:40.887Z,9.30
2022-11-24T10:23:52.958Z,9.30
2022-11-24T10:28:07.527Z,9.50
2022-11-24T10:32:22.554Z,9.50
2022-11-24T10:36:41.021Z,9.50
2022-11-24T10:40:58.076Z,9.60
2022-11-24T10:45:07.029Z,9.60
2022-11-24T10:49:24.769Z,9.50
2022-11-24T10:53:36.162Z,9.50
2022-11-24T10:57:45.412Z,9.50
2022-11-24T11:01:54.702Z,9.60
2022-11-24T11:06:25.547Z,9.60
2022-11-24T11:10:34.127Z,9.60
2022-11-24T11:14:42.757Z,9.70
2022-11-24T11:18:51.797Z,9.70
2022-11-24T11:23:03.395Z,9.80
2022-11-24T11:27:20.232Z,9.80
2022-11-24T11:31:32.119Z,9.90
2022-11-24T11:35:40.862Z,10.00
2022-11-24T11:39:54.908Z,10.10
2022-11-24T11:44:23.094Z,10.20
2022-11-24T11:48:43.311Z,10.20
2022-11-24T11:53:15.116Z,10.20
2022-11-24T11:57:41.521Z,10.30
2022-11-24T12:02:21.965Z,10.30
2022-11-24T12:06:57.957Z,10.40
2022-11-24T12:11:12.913Z,10.50
2022-11-24T12:15:36.682Z,10.50
2022-11-24T12:20:00.478Z,10.50
2022-11-24T12:24:30.674Z,10.50
2022-11-24T12:28:57.500Z,10.50
2022-11-24T12:33:23.980Z,10.50
2022-11-24T12:38:09.507Z,10.50
2022-11-24T12:42:48.021Z,10.50
2022-11-24T12:47:20.443Z,10.50
2022-11-24T12:51:37.976Z,10.50
2022-11-24T12:55:47.377Z,10.50
2022-11-24T13:00:07.728Z,10.60
2022-11-24T13:04:34.765Z,10.60
2022-11-24T13:08:43.714Z,10.70
2022-11-24T13:13:03.636Z,10.70
2022-11-24T13:17:50.277Z,10.70
2022-11-24T13:21:49.470Z,10.70
2022-11-24T13:26:19.155Z,10.70
2022-11-24T13:30:39.816Z,10.80
2022-11-24T13:34:55.867Z,10.80
2022-11-24T13:39:07.261Z,10.90
2022-11-24T13:43:18.959Z,10.80
2022-11-24T13:47:39.443Z,10.80
2022-11-24T13:51:47.991Z,10.90
2022-11-24T13:56:02.885Z,10.90
2022-11-24T14:00:27.762Z,10.90
2022-11-24T14:04:38.142Z,10.90
2022-11-24T14:08:48.897Z,10.80
2022-11-24T14:13:26.636Z,10.80
2022-11-24T14:17:37.721Z,10.70
2022-11-24T14:21:59.558Z,10.70
2022-11-24T14:26:09.724Z,10.60
2022-11-24T14:30:24.022Z,10.60
2022-11-24T14:34:35.174Z,10.50
2022-11-24T14:38:44.731Z,10.50
2022-11-24T14:42:53.345Z,10.40
2022-11-24T14:47:16.608Z,10.30
2022-11-24T14:51:31.397Z,10.20
2022-11-24T14:55:40.252Z,10.20
2022-11-24T15:00:15.585Z,10.10
2022-11-24T15:08:41.036Z,9.90
2022-11-24T15:12:58.470Z,9.90
2022-11-24T15:17:09.354Z,9.80
2022-11-24T15:21:19.822Z,9.80
2022-11-24T15:25:51.447Z,9.70
2022-11-24T15:30:00.020Z,9.70
2022-11-24T15:34:10.492Z,9.60
2022-11-24T15:38:39.498Z,9.60
2022-11-24T15:42:53.691Z,9.50
2022-11-24T15:47:02.323Z,9.40
2022-11-24T15:51:14.195Z,9.30
2022-11-24T15:55:23.260Z,9.20
2022-11-24T15:59:33.540Z,9.10
2022-11-24T16:03:47.427Z,9.10
2022-11-24T16:07:52.771Z,9.00
2022-11-24T16:12:03.207Z,8.90
2022-11-24T16:16:13.606Z,8.80
2022-11-24T16:20:22.366Z,8.70
2022-11-24T16:24:40.776Z,8.70
2022-11-24T16:28:49.337Z,8.60
2022-11-24T16:32:57.960Z,8.60
2022-11-24T16:37:06.937Z,8.50
2022-11-24T16:41:16.475Z,8.50
2022-11-24T16:45:25.064Z,8.40
2022-11-24T16:49:33.721Z,8.40
2022-11-24T16:53:42.604Z,8.40
2022-11-24T16:57:51.299Z,8.40
2022-11-24T17:02:00.114Z,8.40
2022-11-24T17:06:28.115Z,8.30
2022-11-24T17:10:41.041Z,8.30
2022-11-24T17:15:16.321Z,8.30
2022-11-24T17:19:00.648Z,8.20
2022-11-24T17:23:09.282Z,8.20
2022-11-24T17:27:17.808Z,8.20
2022-11-24T17:31:39.184Z,8.20
2022-11-24T17:35:47.756Z,8.20
2022-11-24T17:40:26.381Z,8.10
2022-11-24T17:44:08.156Z,8.00
2022-11-24T17:48:16.728Z,8.00
2022-11-24T17:52:25.859Z,8.00
2022-11-24T17:56:34.509Z,8.00
2022-11-24T18:01:02.638Z,8.00
2022-11-24T18:05:11.589Z,8.00
2022-11-24T18:09:20.243Z,8.10
2022-11-24T18:13:54.884Z,8.10
2022-11-24T18:17:41.185Z,8.10
2022-11-24T18:21:49.817Z,8.10
2022-11-24T18:26:18.003Z,8.00
2022-11-24T18:30:26.939Z,8.00
2022-11-24T18:34:37.458Z,8.00
2022-11-24T18:38:46.430Z,7.90
2022-11-24T18:42:55.078Z,7.90
2022-11-24T18:47:04.355Z,7.80
2022-11-24T18:51:16.008Z,7.80
2022-11-24T18:55:24.753Z,7.80
2022-11-24T18:59:33.279Z,7.70
2022-11-24T19:03:48.674Z,7.60
2022-11-24T19:07:57.269Z,7.60
2022-11-24T19:12:06.353Z,7.60
2022-11-24T19:16:15.819Z,7.60
2022-11-24T19:20:24.510Z,7.50
2022-11-24T19:24:33.352Z,7.50
2022-11-24T19:28:42.485Z,7.50
2022-11-24T19:32:51.021Z,7.50
2022-11-24T19:36:59.645Z,7.50
2022-11-24T19:41:13.473Z,7.40
2022-11-24T19:45:22.040Z,7.40
2022-11-24T19:49:30.646Z,7.30
2022-11-24T19:53:39.147Z,7.30
2022-11-24T19:57:47.753Z,7.20
2022-11-24T20:01:57.752Z,7.20
2022-11-24T20:06:26.563Z,7.10
2022-11-24T20:10:36.656Z,7.10
2022-11-24T20:14:45.253Z,7.10
2022-11-24T20:18:55.322Z,7.10
2022-11-24T20:23:03.944Z,7.00
2022-11-24T20:27:13.291Z,7.00
2022-11-24T20:31:25.034Z,7.00
2022-11-24T20:35:33.825Z,6.90
2022-11-24T20:39:42.453Z,6.90
2022-11-24T20:43:56.343Z,6.90
2022-11-24T20:48:07.903Z,6.80
2022-11-24T20:52:16.406Z,6.80
2022-11-24T20:56:28.452Z,6.80
2022-11-24T21:00:37.071Z,6.80
2022-11-24T21:04:45.623Z,6.80
2022-11-24T21:08:58.973Z,6.80
2022-11-24T21:13:05.060Z,6.80
2022-11-24T21:17:14.447Z,6.80
2022-11-24T21:21:24.201Z,6.80
2022-11-24T21:25:32.934Z,6.80
2022-11-24T21:29:41.458Z,6.80
2022-11-24T21:33:53.011Z,6.80
2022-11-24T21:38:01.788Z,6.80
2022-11-24T21:42:10.316Z,6.80
2022-11-24T21:46:19.085Z,6.80
2022-11-24T21:50:27.981Z,6.90
2022-11-24T21:54:36.805Z,6.90
2022-11-24T21:58:47.539Z,6.90
2022-11-24T22:02:56.109Z,6.90
2022-11-24T22:07:04.683Z,7.00
2022-11-24T22:11:17.067Z,7.00
2022-11-24T22:15:26.922Z,7.00
2022-11-24T22:19:35.504Z,7.10
2022-11-24T22:23:44.897Z,7.20
2022-11-24T22:27:53.524Z,7.20
2022-11-24T22:32:02.197Z,7.30
2022-11-24T22:36:12.932Z,7.30
2022-11-24T22:40:21.662Z,7.40
2022-11-24T22:44:30.297Z,7.40
2022-11-24T22:48:39.815Z,7.50
2022-11-24T22:53:07.736Z,7.50
2022-11-24T22:57:16.351Z,7.50
2022-11-24T23:01:44.333Z,7.50
2022-11-24T23:05:52.899Z,7.50
2022-11-24T23:10:02.341Z,7.50
2022-11-24T23:14:15.769Z,7.50
2022-11-24T23:18:24.380Z,7.50
2022-11-24T23:22:33.011Z,7.50
2022-11-24T23:26:42.351Z,7.40
2022-11-24T23:30:51.086Z,7.40
2022-11-24T23:34:59.609Z,7.40
2022-11-24T23:39:10.800Z,7.40
2022-11-24T23:43:19.426Z,7.40
2022-11-24T23:47:47.408Z,7.40
2022-11-24T23:51:55.935Z,7.40
2022-11-24T23:56:05.081Z,7.40
